Time;durP1;ratioP1;P1;durP2;ratioP2;P2;SDS_P1;SDS_P2;PMS_P1;PMS_P2;Temp;Humidity;BMP_temperature;BMP_pressure;BME280_temperature;BME280_humidity;BME280_pressure;Samples;Min_cycle;Max_cycle;Signal;HPM_P1;HPM_P2
2024/04/02 00:02:03;;;;;;;0.10;0.10;;;;;;;;;;6248860;28;20440;-77
2024/04/02 00:05:04;;;;;;;0.30;0.30;;;;;;;;;;6249584;28;20018;-77
2024/04/02 00:08:05;;;;;;;0.40;0.20;;;;;;;;;;6250324;28;20466;-77
2024/04/02 00:11:06;;;;;;;0.20;0.20;;;;;;;;;;6244678;28;20108;-77
2024/04/02 00:14:06;;;;;;;0.20;0.20;;;;;;;;;;6246722;28;20033;-77
2024/04/02 00:17:06;;;;;;;0.23;0.17;;;;;;;;;;6243322;28;20052;-77
2024/04/02 00:20:07;;;;;;;0.20;0.20;;;;;;;;;;6248374;28;20037;-76
2024/04/02 00:23:07;;;;;;;0.20;0.20;;;;;;;;;;6241767;28;20541;-77
2024/04/02 00:26:07;;;;;;;0.20;0.20;;;;;;;;;;6227750;28;20022;-77
2024/04/02 00:29:08;;;;;;;0.20;0.20;;;;;;;;;;6249893;28;20322;-77
2024/04/02 00:32:08;;;;;;;0.20;0.20;;;;;;;;;;6248388;28;20017;-77
2024/04/02 00:35:09;;;;;;;0.20;0.20;;;;;;;;;;6245992;28;20050;-76
2024/04/02 00:38:09;;;;;;;0.10;0.10;;;;;;;;;;6247560;28;20385;-77
2024/04/02 00:41:09;;;;;;;0.20;0.20;;;;;;;;;;6229738;28;20501;-77
2024/04/02 00:44:09;;;;;;;0.10;0.10;;;;;;;;;;6225148;28;20476;-77
2024/04/02 00:47:11;;;;;;;0.20;0.10;;;;;;;;;;6224114;28;20546;-76
2024/04/02 00:50:11;;;;;;;;;;;;;;;;;;6225378;28;20026;-77
2024/04/02 00:53:12;;;;;;;0.10;0.10;;;;;;;;;;6242567;28;19916;-77
2024/04/02 00:56:12;;;;;;;0.20;0.20;;;;;;;;;;6249906;28;20076;-77
2024/04/02 00:59:13;;;;;;;0.10;0.10;;;;;;;;;;6249038;28;20467;-76
2024/04/02 01:02:13;;;;;;;0.13;0.13;;;;;;;;;;6248354;28;20489;-77
2024/04/02 01:05:13;;;;;;;0.20;0.20;;;;;;;;;;6248664;28;20025;-77
2024/04/02 01:08:14;;;;;;;0.10;0.10;;;;;;;;;;6248837;28;20536;-76
2024/04/02 01:11:14;;;;;;;0.50;0.13;;;;;;;;;;6245480;28;20025;-76
2024/04/02 01:14:14;;;;;;;0.20;0.20;;;;;;;;;;6248879;28;20448;-77
2024/04/02 01:17:16;;;;;;;0.10;0.10;;;;;;;;;;6248231;28;20071;-77
2024/04/02 01:20:16;;;;;;;0.10;0.10;;;;;;;;;;6231998;28;20157;-76
2024/04/02 01:23:16;;;;;;;0.30;0.17;;;;;;;;;;6248321;28;20029;-76
2024/04/02 01:26:16;;;;;;;0.40;0.20;;;;;;;;;;6245605;28;20466;-77
2024/04/02 01:29:17;;;;;;;0.17;0.17;;;;;;;;;;6248309;28;20457;-77
2024/04/02 01:32:17;;;;;;;0.10;0.10;;;;;;;;;;6246132;28;20504;-77
2024/04/02 01:35:18;;;;;;;0.37;0.20;;;;;;;;;;6229167;28;20486;-77
2024/04/02 01:38:18;;;;;;;0.10;0.10;;;;;;;;;;6222857;28;20025;-76
2024/04/02 01:41:18;;;;;;;0.13;0.13;;;;;;;;;;6235543;28;20029;-77
2024/04/02 01:44:18;;;;;;;0.10;0.10;;;;;;;;;;6247170;28;20108;-77
2024/04/02 01:47:19;;;;;;;0.10;0.10;;;;;;;;;;6247677;28;20028;-76
2024/04/02 01:50:19;;;;;;;0.10;0.10;;;;;;;;;;6246136;28;20033;-77
2024/04/02 01:53:19;;;;;;;0.20;0.20;;;;;;;;;;6246340;28;20021;-77
2024/04/02 01:56:20;;;;;;;0.20;0.10;;;;;;;;;;6248814;28;20470;-77
2024/04/02 01:59:20;;;;;;;0.10;0.10;;;;;;;;;;6245183;28;20764;-77
2024/04/02 02:02:20;;;;;;;0.20;0.20;;;;;;;;;;6247455;28;20049;-77
2024/04/02 02:05:21;;;;;;;0.10;0.10;;;;;;;;;;6245553;28;20275;-77
2024/04/02 02:08:21;;;;;;;0.10;0.10;;;;;;;;;;6247717;28;20099;-77
2024/04/02 02:11:21;;;;;;;0.10;0.10;;;;;;;;;;6244835;28;20497;-77
2024/04/02 02:14:21;;;;;;;0.30;0.30;;;;;;;;;;6247673;28;20513;-77
2024/04/02 02:17:22;;;;;;;0.13;0.10;;;;;;;;;;6242399;28;20554;-75
2024/04/02 02:20:22;;;;;;;0.27;0.17;;;;;;;;;;6222938;28;20489;-75
2024/04/02 02:23:23;;;;;;;0.10;0.10;;;;;;;;;;6222995;28;20038;-75
2024/04/02 02:26:23;;;;;;;0.10;0.10;;;;;;;;;;6223262;28;20041;-75
2024/04/02 02:29:25;;;;;;;0.20;0.20;;;;;;;;;;6223341;28;20091;-75
2024/04/02 02:32:25;;;;;;;0.10;0.10;;;;;;;;;;6229459;28;20076;-76
2024/04/02 02:35:25;;;;;;;0.47;0.10;;;;;;;;;;6237896;28;20537;-75
2024/04/02 02:38:26;;;;;;;0.20;0.20;;;;;;;;;;6225887;28;20518;-75
2024/04/02 02:41:26;;;;;;;0.10;0.10;;;;;;;;;;6229647;28;20471;-75
2024/04/02 02:44:27;;;;;;;0.10;0.10;;;;;;;;;;6247767;28;20489;-75
2024/04/02 02:47:27;;;;;;;0.10;0.10;;;;;;;;;;6236425;28;20049;-75
2024/04/02 02:50:27;;;;;;;0.37;0.20;;;;;;;;;;6240773;28;20025;-75
2024/04/02 02:53:27;;;;;;;0.10;0.10;;;;;;;;;;6245664;28;20029;-75
2024/04/02 02:56:28;;;;;;;0.17;0.17;;;;;;;;;;6250150;28;20437;-75
2024/04/02 02:59:28;;;;;;;0.10;0.10;;;;;;;;;;6252273;28;20029;-75
2024/04/02 03:02:28;;;;;;;0.20;0.20;;;;;;;;;;6248179;28;20041;-75
2024/04/02 03:05:28;;;;;;;0.10;0.10;;;;;;;;;;6231561;28;20025;-75
2024/04/02 03:08:29;;;;;;;0.40;0.20;;;;;;;;;;6251668;28;20028;-75
2024/04/02 03:11:29;;;;;;;0.10;0.10;;;;;;;;;;6247924;28;20044;-76
2024/04/02 03:14:29;;;;;;;0.50;0.20;;;;;;;;;;6237079;28;20481;-75
2024/04/02 03:17:30;;;;;;;0.10;0.10;;;;;;;;;;6226423;28;20041;-75
2024/04/02 03:20:37;;;;;;;0.20;0.20;;;;;;;;;;6226402;28;20109;-75
2024/04/02 03:23:37;;;;;;;0.35;0.22;;;;;;;;;;6240442;28;20041;-75
2024/04/02 03:26:37;;;;;;;0.17;0.17;;;;;;;;;;6250980;28;20029;-75
2024/04/02 03:29:37;;;;;;;0.30;0.20;;;;;;;;;;6233949;28;20022;-75
2024/04/02 03:32:38;;;;;;;0.87;0.20;;;;;;;;;;6226618;28;20026;-75
2024/04/02 03:35:38;;;;;;;0.10;0.10;;;;;;;;;;6226524;28;20392;-75
2024/04/02 03:38:39;;;;;;;0.20;0.20;;;;;;;;;;6226264;28;20545;-75
2024/04/02 03:41:39;;;;;;;0.20;0.20;;;;;;;;;;6249372;28;20462;-75
2024/04/02 03:44:39;;;;;;;0.10;0.10;;;;;;;;;;6249972;28;20386;-75
2024/04/02 03:47:39;;;;;;;0.20;0.17;;;;;;;;;;6247092;28;20497;-75
2024/04/02 03:50:40;;;;;;;0.53;0.20;;;;;;;;;;6235169;28;20458;-75
2024/04/02 03:53:40;;;;;;;0.30;0.20;;;;;;;;;;6250729;28;20412;-75
2024/04/02 03:56:40;;;;;;;0.20;0.20;;;;;;;;;;6246592;28;20072;-75
2024/04/02 03:59:41;;;;;;;0.20;0.20;;;;;;;;;;6246356;28;20030;-75
2024/04/02 04:02:41;;;;;;;0.10;0.10;;;;;;;;;;6246145;28;20060;-75
2024/04/02 04:05:41;;;;;;;0.20;0.20;;;;;;;;;;6250140;28;20041;-75
2024/04/02 04:08:41;;;;;;;0.27;0.20;;;;;;;;;;6249348;28;20041;-76
2024/04/02 04:11:41;;;;;;;0.20;0.20;;;;;;;;;;6248738;28;20421;-75
2024/04/02 04:14:46;;;;;;;0.50;0.20;;;;;;;;;;6245157;28;20033;-75
2024/04/02 04:17:48;;;;;;;0.20;0.17;;;;;;;;;;6225085;28;20042;-76
2024/04/02 04:20:51;;;;;;;0.22;0.15;;;;;;;;;;6240965;28;20034;-75
2024/04/02 04:23:51;;;;;;;0.20;0.20;;;;;;;;;;6225638;28;20040;-75
2024/04/02 04:26:51;;;;;;;0.20;0.20;;;;;;;;;;6226257;28;20021;-75
2024/04/02 04:29:52;;;;;;;0.20;0.20;;;;;;;;;;6239513;28;20104;-75
2024/04/02 04:32:52;;;;;;;0.13;0.13;;;;;;;;;;6249491;28;20026;-75
2024/04/02 04:35:53;;;;;;;0.20;0.20;;;;;;;;;;6244889;28;20045;-75
2024/04/02 04:38:53;;;;;;;0.30;0.30;;;;;;;;;;6237556;28;20022;-78
2024/04/02 04:41:53;;;;;;;0.20;0.20;;;;;;;;;;6243283;28;20044;-77
2024/04/02 04:44:54;;;;;;;0.20;0.20;;;;;;;;;;6232866;28;20037;-77
2024/04/02 04:47:56;;;;;;;0.13;0.13;;;;;;;;;;6241450;28;20025;-78
2024/04/02 04:50:56;;;;;;;0.32;0.20;;;;;;;;;;6249274;28;20071;-78
2024/04/02 04:53:56;;;;;;;0.40;0.30;;;;;;;;;;6245622;28;20033;-78
2024/04/02 04:56:56;;;;;;;0.20;0.20;;;;;;;;;;6250130;28;20033;-78
2024/04/02 04:59:57;;;;;;;0.10;0.10;;;;;;;;;;6248999;28;20478;-78
2024/04/02 05:02:57;;;;;;;0.53;0.40;;;;;;;;;;6248965;28;20473;-78
2024/04/02 05:06:03;;;;;;;0.30;0.30;;;;;;;;;;6239184;28;20517;-77
2024/04/02 05:09:04;;;;;;;0.20;0.20;;;;;;;;;;6225671;28;20116;-79
2024/04/02 05:12:04;;;;;;;0.20;0.20;;;;;;;;;;6246795;28;20022;-78
2024/04/02 05:15:05;;;;;;;0.10;0.10;;;;;;;;;;6249627;28;20283;-78
2024/04/02 05:18:06;;;;;;;0.23;0.20;;;;;;;;;;6247748;28;20470;-78
2024/04/02 05:21:06;;;;;;;0.30;0.30;;;;;;;;;;6245636;28;20049;-78
2024/04/02 05:24:07;;;;;;;0.30;0.30;;;;;;;;;;6248852;28;20043;-78
2024/04/02 05:27:07;;;;;;;0.20;0.20;;;;;;;;;;6243990;28;20066;-78
2024/04/02 05:30:08;;;;;;;0.30;0.30;;;;;;;;;;6224727;28;20030;-78
2024/04/02 05:33:09;;;;;;;0.20;0.20;;;;;;;;;;6223423;28;20033;-78
2024/04/02 05:36:09;;;;;;;0.37;0.37;;;;;;;;;;6223857;28;20406;-78
2024/04/02 05:39:09;;;;;;;0.40;0.30;;;;;;;;;;6239021;28;20394;-78
2024/04/02 05:42:11;;;;;;;0.70;0.30;;;;;;;;;;6246495;28;20034;-78
2024/04/02 05:45:11;;;;;;;;;;;;;;;;;;6247160;28;20053;-78
2024/04/02 05:48:11;;;;;;;0.10;0.10;;;;;;;;;;6247994;28;19951;-78
2024/04/02 05:51:11;;;;;;;0.30;0.20;;;;;;;;;;6239795;28;20103;-78
2024/04/02 05:54:11;;;;;;;0.10;0.10;;;;;;;;;;6230136;28;20029;-78
2024/04/02 05:57:15;;;;;;;0.10;0.10;;;;;;;;;;6239950;28;20033;-78
2024/04/02 06:00:15;;;;;;;0.20;0.20;;;;;;;;;;6223911;28;20067;-78
2024/04/02 06:03:15;;;;;;;0.10;0.10;;;;;;;;;;6222689;28;20034;-76
2024/04/02 06:06:17;;;;;;;0.10;0.10;;;;;;;;;;6243946;28;20021;-77
2024/04/02 06:09:19;;;;;;;0.10;0.10;;;;;;;;;;6238231;28;20491;-77
2024/04/02 06:12:19;;;;;;;0.20;0.20;;;;;;;;;;6239892;28;20064;-79
2024/04/02 06:15:21;;;;;;;0.17;0.13;;;;;;;;;;6234970;28;20116;-77
2024/04/02 06:18:23;;;;;;;0.40;0.20;;;;;;;;;;6242548;28;20064;-78
2024/04/02 06:21:24;;;;;;;0.28;0.28;;;;;;;;;;6229178;28;20058;-77
2024/04/02 06:24:24;;;;;;;0.10;0.10;;;;;;;;;;6231893;28;20087;-78
2024/04/02 06:27:25;;;;;;;0.20;0.20;;;;;;;;;;6222624;28;20541;-77
2024/04/02 06:30:25;;;;;;;0.27;0.27;;;;;;;;;;6236056;28;20462;-77
2024/04/02 06:33:25;;;;;;;0.20;0.20;;;;;;;;;;6240882;28;20025;-78
2024/04/02 06:36:26;;;;;;;0.20;0.20;;;;;;;;;;6252344;28;20479;-77
2024/04/02 06:39:26;;;;;;;0.30;0.30;;;;;;;;;;6252406;28;20462;-78
2024/04/02 06:42:26;;;;;;;0.33;0.20;;;;;;;;;;6250670;28;20052;-77
2024/04/02 06:45:27;;;;;;;0.30;0.20;;;;;;;;;;6256817;28;20029;-77
2024/04/02 06:48:27;;;;;;;0.20;0.20;;;;;;;;;;6240362;28;20088;-77
2024/04/02 06:51:27;;;;;;;0.20;0.10;;;;;;;;;;6227594;28;20037;-77
2024/04/02 06:54:28;;;;;;;0.30;0.23;;;;;;;;;;6249265;28;20028;-77
2024/04/02 06:57:28;;;;;;;0.33;0.23;;;;;;;;;;6252893;28;20017;-77
2024/04/02 07:00:28;;;;;;;0.13;0.13;;;;;;;;;;6233947;28;20029;-78
2024/04/02 07:03:28;;;;;;;0.10;0.10;;;;;;;;;;6243924;28;20033;-78
2024/04/02 07:06:29;;;;;;;0.30;0.20;;;;;;;;;;6243646;28;20040;-80
2024/04/02 07:09:30;;;;;;;0.30;0.20;;;;;;;;;;6249401;28;20484;-77
2024/04/02 07:12:30;;;;;;;0.40;0.40;;;;;;;;;;6250591;28;20036;-77
2024/04/02 07:15:30;;;;;;;0.30;0.20;;;;;;;;;;6228927;28;20475;-77
2024/04/02 07:18:37;;;;;;;0.25;0.20;;;;;;;;;;6240449;28;20030;-78
2024/04/02 07:21:37;;;;;;;0.47;0.30;;;;;;;;;;6233796;28;20033;-77
2024/04/02 07:24:37;;;;;;;0.30;0.27;;;;;;;;;;6239715;28;20034;-78
2024/04/02 07:27:38;;;;;;;0.20;0.20;;;;;;;;;;6248632;28;20397;-79
2024/04/02 07:30:38;;;;;;;0.27;0.20;;;;;;;;;;6242332;28;20057;-78
2024/04/02 07:33:39;;;;;;;0.20;0.10;;;;;;;;;;6245943;28;20493;-78
2024/04/02 07:36:39;;;;;;;0.17;0.17;;;;;;;;;;6240462;28;20486;-78
2024/04/02 07:39:39;;;;;;;0.20;0.20;;;;;;;;;;6250688;28;20398;-78
2024/04/02 07:42:40;;;;;;;0.10;0.10;;;;;;;;;;6255170;28;20401;-79
2024/04/02 07:45:40;;;;;;;0.20;0.20;;;;;;;;;;6251343;28;20104;-78
2024/04/02 07:48:40;;;;;;;3.47;0.50;;;;;;;;;;6250036;28;20438;-78
2024/04/02 07:51:40;;;;;;;0.50;0.37;;;;;;;;;;6244034;28;20022;-78
2024/04/02 07:54:41;;;;;;;1.65;0.30;;;;;;;;;;6230795;28;20041;-78
2024/04/02 07:57:42;;;;;;;0.35;0.20;;;;;;;;;;6263074;28;20037;-80
2024/04/02 08:00:44;;;;;;;0.30;0.20;;;;;;;;;;6249709;28;20367;-79
2024/04/02 08:03:44;;;;;;;0.20;0.20;;;;;;;;;;6247250;28;20043;-78
2024/04/02 08:06:44;;;;;;;0.30;0.20;;;;;;;;;;6242821;28;20444;-79
2024/04/02 08:09:45;;;;;;;0.10;0.10;;;;;;;;;;6239006;28;20406;-77
2024/04/02 08:12:45;;;;;;;0.10;0.10;;;;;;;;;;6272688;28;20836;-76
2024/04/02 08:15:46;;;;;;;0.20;0.20;;;;;;;;;;6230685;28;20033;-75
2024/04/02 08:18:46;;;;;;;0.10;0.10;;;;;;;;;;6232438;28;20025;-76
2024/04/02 08:21:47;;;;;;;0.30;0.20;;;;;;;;;;6250354;28;20367;-76
2024/04/02 08:24:48;;;;;;;0.25;0.20;;;;;;;;;;6234704;28;20022;-76
2024/04/02 08:27:48;;;;;;;;;;;;;;;;;;6242226;28;20034;-76
2024/04/02 08:30:49;;;;;;;0.10;0.10;;;;;;;;;;6243756;28;19932;-76
2024/04/02 08:33:49;;;;;;;0.10;0.10;;;;;;;;;;6239218;28;20366;-75
2024/04/02 08:36:49;;;;;;;0.30;0.13;;;;;;;;;;6225275;28;20135;-75
2024/04/02 08:39:50;;;;;;;0.17;0.17;;;;;;;;;;6240524;28;20430;-75
2024/04/02 08:42:52;;;;;;;0.50;0.20;;;;;;;;;;6250346;28;20060;-75
2024/04/02 08:45:53;;;;;;;1.58;0.20;;;;;;;;;;6247765;28;20026;-76
2024/04/02 08:48:56;;;;;;;0.40;0.10;;;;;;;;;;6237089;28;20481;-75
2024/04/02 08:51:56;;;;;;;0.30;0.20;;;;;;;;;;6250048;28;20025;-75
2024/04/02 08:54:56;;;;;;;0.17;0.17;;;;;;;;;;6246932;28;20033;-76
2024/04/02 08:57:57;;;;;;;0.20;0.20;;;;;;;;;;6237965;28;20021;-75
2024/04/02 09:01:01;;;;;;;0.10;0.10;;;;;;;;;;6265837;28;20087;-76
2024/04/02 09:04:02;;;;;;;0.20;0.17;;;;;;;;;;6248583;28;20527;-75
2024/04/02 09:07:02;;;;;;;0.90;0.20;;;;;;;;;;6247966;28;20029;-76
2024/04/02 09:10:02;;;;;;;0.60;0.20;;;;;;;;;;6247493;28;20029;-76
2024/04/02 09:13:03;;;;;;;0.10;0.10;;;;;;;;;;6245794;28;20053;-75
2024/04/02 09:16:03;;;;;;;0.27;0.20;;;;;;;;;;6229979;28;20285;-75
2024/04/02 09:19:05;;;;;;;0.20;0.20;;;;;;;;;;6224774;28;20434;-76
2024/04/02 09:22:06;;;;;;;0.10;0.10;;;;;;;;;;6238015;28;20032;-77
2024/04/02 09:25:06;;;;;;;1.23;0.20;;;;;;;;;;6248954;28;20367;-76
2024/04/02 09:28:06;;;;;;;1.17;0.40;;;;;;;;;;6246601;28;20474;-77
2024/04/02 09:31:07;;;;;;;1.03;0.50;;;;;;;;;;6236077;28;20315;-77
2024/04/02 09:34:08;;;;;;;0.50;0.50;;;;;;;;;;6231321;28;20077;-76
2024/04/02 09:37:31;;;;;;;0.30;0.20;;;;;;;;;;6246412;28;20077;-76
2024/04/02 09:40:32;;;;;;;0.57;0.20;;;;;;;;;;6228021;28;20034;-76
2024/04/02 09:43:34;;;;;;;0.60;0.20;;;;;;;;;;6227487;28;20052;-76
2024/04/02 09:46:35;;;;;;;0.20;0.10;;;;;;;;;;6239850;28;20386;-77
2024/04/02 09:49:36;;;;;;;0.10;0.10;;;;;;;;;;6244784;28;20033;-79
2024/04/02 09:52:36;;;;;;;;;;;;;;;;;;6248459;28;20072;-77
2024/04/02 09:55:37;;;;;;;0.27;0.17;;;;;;;;;;6248818;28;19917;-77
2024/04/02 09:58:38;;;;;;;;;;;;;;;;;;6242694;28;20033;-77
2024/04/02 10:01:40;;;;;;;0.10;0.10;;;;;;;;;;6232455;28;19920;-76
2024/04/02 10:04:41;;;;;;;0.10;0.10;;;;;;;;;;6239386;28;20033;-78
2024/04/02 10:07:41;;;;;;;0.30;0.30;;;;;;;;;;6235422;28;20087;-77
2024/04/02 10:10:41;;;;;;;0.53;0.20;;;;;;;;;;6235077;28;20025;-76
2024/04/02 10:13:42;;;;;;;0.50;0.32;;;;;;;;;;6240135;28;20030;-75
2024/04/02 10:16:45;;;;;;;0.53;0.30;;;;;;;;;;6233137;28;20063;-76
2024/04/02 10:19:46;;;;;;;0.85;0.40;;;;;;;;;;6236167;28;20474;-76
2024/04/02 10:22:47;;;;;;;0.57;0.30;;;;;;;;;;6235301;28;20038;-76
2024/04/02 10:25:50;;;;;;;;;;;;;;;;;;6248578;28;20030;-76
2024/04/02 10:28:53;;;;;;;0.28;0.20;;;;;;;;;;6245780;28;19963;-78
2024/04/02 10:31:55;;;;;;;0.20;0.20;;;;;;;;;;6247724;28;20394;-76
2024/04/02 10:34:56;;;;;;;0.28;0.22;;;;;;;;;;6246235;28;20044;-76
2024/04/02 10:37:57;;;;;;;0.50;0.20;;;;;;;;;;6247539;28;20478;-77
2024/04/02 10:40:57;;;;;;;0.22;0.13;;;;;;;;;;6245466;28;20064;-77
2024/04/02 10:43:58;;;;;;;0.77;0.43;;;;;;;;;;6247974;28;20037;-76
2024/04/02 10:46:59;;;;;;;0.30;0.30;;;;;;;;;;6247657;28;20514;-75
2024/04/02 10:49:59;;;;;;;0.75;0.30;;;;;;;;;;6246010;28;20533;-76
2024/04/02 10:53:00;;;;;;;0.60;0.20;;;;;;;;;;6246852;28;20029;-77
2024/04/02 10:56:02;;;;;;;0.27;0.17;;;;;;;;;;6229527;28;20057;-77
2024/04/02 10:59:03;;;;;;;0.17;0.13;;;;;;;;;;6223570;28;20026;-75
2024/04/02 11:02:08;;;;;;;;;;;;;;;;;;6240933;28;20021;-75
2024/04/02 11:05:12;;;;;;;0.13;0.10;;;;;;;;;;6221063;28;20401;-76
2024/04/02 11:08:12;;;;;;;0.95;0.20;;;;;;;;;;6222923;28;20080;-76
2024/04/02 11:11:22;;;;;;;0.40;0.20;;;;;;;;;;6225871;28;20477;-76
2024/04/02 11:14:22;;;;;;;0.40;0.20;;;;;;;;;;6246098;28;20030;-75
2024/04/02 11:17:23;;;;;;;1.07;0.13;;;;;;;;;;6248863;28;20451;-76
2024/04/02 11:20:23;;;;;;;0.10;0.10;;;;;;;;;;6251009;28;20462;-76
2024/04/02 11:26:47;;;;;;;1.23;0.20;;;;;;;;;;6227349;28;20061;-75
2024/04/02 11:29:48;;;;;;;0.65;0.30;;;;;;;;;;6247100;28;20045;-75
2024/04/02 11:32:48;;;;;;;0.10;0.10;;;;;;;;;;6230302;28;20530;-75
2024/04/02 11:35:48;;;;;;;0.20;0.20;;;;;;;;;;6232470;28;20524;-75
2024/04/02 11:38:49;;;;;;;0.10;0.10;;;;;;;;;;6251501;28;20493;-75
2024/04/02 11:41:49;;;;;;;0.23;0.20;;;;;;;;;;6234264;28;20505;-79
2024/04/02 11:44:50;;;;;;;0.40;0.20;;;;;;;;;;6227194;28;20463;-80
2024/04/02 11:47:50;;;;;;;0.20;0.10;;;;;;;;;;6230397;28;20359;-75
2024/04/02 11:50:50;;;;;;;0.80;0.60;;;;;;;;;;6225877;28;20061;-77
2024/04/02 11:53:51;;;;;;;0.30;0.30;;;;;;;;;;6241764;28;20379;-77
2024/04/02 12:00:16;;;;;;;0.20;0.20;;;;;;;;;;6266151;28;20069;-77
2024/04/02 12:03:17;;;;;;;0.68;0.30;;;;;;;;;;6235961;28;20036;-77
2024/04/02 12:06:18;;;;;;;0.25;0.25;;;;;;;;;;6236277;28;20430;-77
2024/04/02 12:09:18;;;;;;;0.20;0.13;;;;;;;;;;6240221;28;20033;-77
2024/04/02 12:12:19;;;;;;;0.20;0.20;;;;;;;;;;6251008;28;20496;-77
2024/04/02 12:15:19;;;;;;;0.20;0.20;;;;;;;;;;6252185;28;20443;-77
2024/04/02 12:18:19;;;;;;;0.17;0.17;;;;;;;;;;6249235;28;20369;-76
2024/04/02 12:21:19;;;;;;;0.10;0.10;;;;;;;;;;6241317;28;20276;-77
2024/04/02 12:24:20;;;;;;;0.20;0.10;;;;;;;;;;6252447;28;20025;-77
2024/04/02 12:27:20;;;;;;;0.10;0.10;;;;;;;;;;6249397;28;20021;-77
2024/04/02 12:30:21;;;;;;;0.30;0.10;;;;;;;;;;6253238;28;20074;-77
2024/04/02 12:33:21;;;;;;;0.17;0.10;;;;;;;;;;6275298;28;20021;-78
2024/04/02 12:36:22;;;;;;;0.10;0.10;;;;;;;;;;6274852;28;20476;-77
2024/04/02 12:39:22;;;;;;;0.20;0.20;;;;;;;;;;6269804;28;20288;-77
2024/04/02 12:42:23;;;;;;;0.50;0.10;;;;;;;;;;6245879;28;20401;-76
2024/04/02 12:45:23;;;;;;;0.33;0.10;;;;;;;;;;6247497;28;20450;-77
2024/04/02 12:48:23;;;;;;;0.10;0.10;;;;;;;;;;6243685;28;20033;-78
2024/04/02 12:51:23;;;;;;;0.10;0.10;;;;;;;;;;6230553;28;20865;-77
2024/04/02 12:54:24;;;;;;;0.10;0.10;;;;;;;;;;6250750;28;20044;-77
2024/04/02 12:57:24;;;;;;;0.10;0.10;;;;;;;;;;6252749;28;20021;-78
2024/04/02 13:00:24;;;;;;;0.10;0.10;;;;;;;;;;6245311;28;20485;-77
2024/04/02 13:03:24;;;;;;;0.10;0.10;;;;;;;;;;6239475;28;20528;-77
2024/04/02 13:06:25;;;;;;;0.17;0.10;;;;;;;;;;6236440;28;20470;-78
2024/04/02 13:09:26;;;;;;;0.20;0.20;;;;;;;;;;6246928;28;20485;-77
2024/04/02 13:12:26;;;;;;;0.10;0.10;;;;;;;;;;6235256;28;20029;-77
2024/04/02 13:15:29;;;;;;;0.20;0.20;;;;;;;;;;6250627;28;20029;-77
2024/04/02 13:18:29;;;;;;;0.73;0.35;;;;;;;;;;6249513;28;20029;-77
2024/04/02 13:21:30;;;;;;;0.30;0.20;;;;;;;;;;6238957;28;20391;-78
2024/04/02 13:24:30;;;;;;;0.32;0.20;;;;;;;;;;6225261;28;20485;-76
2024/04/02 13:27:31;;;;;;;0.10;0.10;;;;;;;;;;6224730;28;20132;-77
2024/04/02 13:30:31;;;;;;;0.10;0.10;;;;;;;;;;6242834;28;20036;-76
2024/04/02 13:33:32;;;;;;;0.20;0.20;;;;;;;;;;6235962;28;20761;-76
2024/04/02 13:36:32;;;;;;;0.10;0.10;;;;;;;;;;6226961;28;20347;-76
2024/04/02 13:39:32;;;;;;;0.20;0.20;;;;;;;;;;6223684;28;20463;-76
2024/04/02 13:42:32;;;;;;;0.20;0.20;;;;;;;;;;6226227;28;20475;-76
2024/04/02 13:45:33;;;;;;;0.20;0.13;;;;;;;;;;6225022;28;20026;-76
2024/04/02 13:48:34;;;;;;;0.03;0.03;;;;;;;;;;6223528;28;20494;-76
2024/04/02 13:51:34;;;;;;;0.10;0.10;;;;;;;;;;6236651;28;20491;-76
2024/04/02 13:54:35;;;;;;;0.03;0.03;;;;;;;;;;6246560;28;20036;-76
2024/04/02 13:57:35;;;;;;;;;;;;;;;;;;6224437;28;20100;-75
2024/04/02 14:00:35;;;;;;;0.13;0.08;;;;;;;;;;6233076;28;20404;-76
2024/04/02 14:03:36;;;;;;;0.20;0.20;;;;;;;;;;6247375;28;20021;-75
2024/04/02 14:06:37;;;;;;;;;;;;;;;;;;6250694;28;20088;-80
2024/04/02 14:09:37;;;;;;;1.98;1.42;;;;;;;;;;6238877;28;20373;-76
2024/04/02 14:12:37;;;;;;;1.20;1.10;;;;;;;;;;6228976;28;20064;-76
2024/04/02 14:15:38;;;;;;;0.97;0.70;;;;;;;;;;6224820;28;20375;-76
2024/04/02 14:18:38;;;;;;;0.55;0.45;;;;;;;;;;6246927;28;20382;-76
2024/04/02 14:21:38;;;;;;;0.32;0.30;;;;;;;;;;6246845;28;20116;-75
2024/04/02 14:24:39;;;;;;;0.30;0.30;;;;;;;;;;6247579;28;20041;-75
2024/04/02 14:27:39;;;;;;;0.43;0.30;;;;;;;;;;6245664;28;20032;-76
2024/04/02 14:30:39;;;;;;;0.23;0.23;;;;;;;;;;6225167;28;20022;-75
2024/04/02 14:33:39;;;;;;;0.20;0.17;;;;;;;;;;6221921;28;20038;-75
2024/04/02 14:36:40;;;;;;;0.20;0.20;;;;;;;;;;6223705;28;20050;-75
2024/04/02 14:39:40;;;;;;;0.30;0.20;;;;;;;;;;6226669;28;20029;-76
2024/04/02 14:42:40;;;;;;;0.20;0.10;;;;;;;;;;6247429;28;20022;-75
2024/04/02 14:45:41;;;;;;;0.27;0.10;;;;;;;;;;6248231;28;20037;-74
2024/04/02 14:48:41;;;;;;;0.10;0.10;;;;;;;;;;6242437;28;20022;-75
2024/04/02 14:51:42;;;;;;;0.10;0.10;;;;;;;;;;6223955;28;20017;-75
2024/04/02 14:54:43;;;;;;;0.20;0.20;;;;;;;;;;6234754;28;20264;-75
2024/04/02 14:57:43;;;;;;;1.50;0.10;;;;;;;;;;6248595;28;20489;-74
2024/04/02 15:00:43;;;;;;;0.10;0.10;;;;;;;;;;6239871;28;20352;-75
2024/04/02 15:03:43;;;;;;;0.10;0.10;;;;;;;;;;6238387;28;20048;-75
2024/04/02 15:06:47;;;;;;;0.10;0.10;;;;;;;;;;6256752;28;20022;-75
2024/04/02 15:09:48;;;;;;;0.10;0.10;;;;;;;;;;6248175;28;20021;-75
2024/04/02 15:12:49;;;;;;;0.30;0.10;;;;;;;;;;6248152;28;20485;-75
2024/04/02 15:15:49;;;;;;;0.22;0.10;;;;;;;;;;6252560;28;20025;-75
2024/04/02 15:18:49;;;;;;;0.10;0.10;;;;;;;;;;6249452;28;20497;-75
2024/04/02 15:21:49;;;;;;;0.10;0.10;;;;;;;;;;6251538;28;20489;-75
2024/04/02 15:24:50;;;;;;;0.00;0.00;;;;;;;;;;6246688;28;20549;-75
2024/04/02 15:27:50;;;;;;;0.20;0.20;;;;;;;;;;6240552;28;20264;-76
2024/04/02 15:30:51;;;;;;;0.10;0.10;;;;;;;;;;6247639;28;20025;-76
2024/04/02 15:33:51;;;;;;;;;;;;;;;;;;6234475;28;20036;-77
2024/04/02 15:36:51;;;;;;;0.30;0.10;;;;;;;;;;6238836;28;19917;-76
2024/04/02 15:39:55;;;;;;;0.10;0.10;;;;;;;;;;6250928;28;20456;-76
2024/04/02 15:42:55;;;;;;;0.10;0.10;;;;;;;;;;6251394;28;20438;-76
2024/04/02 15:46:02;;;;;;;0.07;0.07;;;;;;;;;;6250332;28;20021;-76
2024/04/02 15:49:02;;;;;;;0.20;0.10;;;;;;;;;;6243381;28;20028;-75
2024/04/02 15:52:03;;;;;;;0.15;0.15;;;;;;;;;;6249462;28;20025;-76
2024/04/02 15:55:03;;;;;;;0.10;0.10;;;;;;;;;;6227369;28;20489;-77
2024/04/02 15:58:04;;;;;;;0.10;0.10;;;;;;;;;;6249528;28;20029;-80
2024/04/02 16:01:05;;;;;;;0.20;0.20;;;;;;;;;;6246024;28;20088;-78
2024/04/02 16:04:05;;;;;;;0.00;0.00;;;;;;;;;;6249060;28;20112;-78
2024/04/02 16:07:06;;;;;;;0.00;0.00;;;;;;;;;;6246162;28;20030;-79
2024/04/02 16:10:13;;;;;;;0.10;0.10;;;;;;;;;;6250437;28;20470;-79
2024/04/02 16:13:14;;;;;;;0.35;0.10;;;;;;;;;;6243206;28;20356;-79
2024/04/02 16:16:14;;;;;;;0.20;0.10;;;;;;;;;;6225873;28;20033;-77
2024/04/02 16:19:15;;;;;;;0.10;0.10;;;;;;;;;;6240362;28;20470;-79
2024/04/02 16:22:15;;;;;;;0.10;0.10;;;;;;;;;;6234721;28;20048;-80
2024/04/02 16:25:17;;;;;;;1.23;1.10;;;;;;;;;;6243754;28;20432;-77
2024/04/02 16:28:17;;;;;;;1.27;0.90;;;;;;;;;;6230135;28;20064;-80
2024/04/02 16:31:17;;;;;;;0.60;0.50;;;;;;;;;;6247785;28;20022;-80
2024/04/02 16:34:18;;;;;;;0.30;0.30;;;;;;;;;;6248609;28;20030;-80
2024/04/02 16:37:18;;;;;;;0.30;0.30;;;;;;;;;;6244592;28;20062;-77
2024/04/02 16:40:18;;;;;;;0.20;0.20;;;;;;;;;;6225874;28;20033;-78
2024/04/02 16:43:20;;;;;;;0.50;0.37;;;;;;;;;;6245141;28;20455;-74
2024/04/02 16:46:22;;;;;;;0.22;0.22;;;;;;;;;;6238142;28;20433;-78
2024/04/02 16:49:22;;;;;;;0.10;0.10;;;;;;;;;;6224069;28;20088;-78
2024/04/02 16:52:22;;;;;;;0.20;0.20;;;;;;;;;;6226997;28;20026;-79
2024/04/02 16:55:23;;;;;;;0.20;0.20;;;;;;;;;;6240726;28;20378;-78
2024/04/02 16:58:23;;;;;;;0.20;0.20;;;;;;;;;;6245256;28;20032;-84
2024/04/02 17:01:23;;;;;;;0.30;0.30;;;;;;;;;;6235990;28;20025;-78
2024/04/02 17:04:24;;;;;;;0.90;0.20;;;;;;;;;;6237090;28;20024;-79
2024/04/02 17:07:24;;;;;;;0.17;0.10;;;;;;;;;;6248327;28;20030;-79
2024/04/02 17:10:24;;;;;;;0.50;0.20;;;;;;;;;;6244189;28;20032;-78
2024/04/02 17:13:25;;;;;;;0.13;0.10;;;;;;;;;;6246620;28;20030;-79
2024/04/02 17:16:25;;;;;;;0.30;0.23;;;;;;;;;;6248650;28;20029;-78
2024/04/02 17:19:26;;;;;;;0.17;0.17;;;;;;;;;;6237385;28;20033;-78
2024/04/02 17:22:26;;;;;;;0.33;0.20;;;;;;;;;;6242938;28;20114;-79
2024/04/02 17:25:26;;;;;;;0.33;0.20;;;;;;;;;;6248879;28;20018;-79
2024/04/02 17:28:26;;;;;;;0.10;0.10;;;;;;;;;;6238157;28;20025;-78
2024/04/02 17:31:27;;;;;;;0.40;0.20;;;;;;;;;;6240152;28;20041;-80
2024/04/02 17:34:27;;;;;;;0.20;0.20;;;;;;;;;;6223364;28;20057;-78
2024/04/02 17:37:28;;;;;;;0.50;0.30;;;;;;;;;;6231140;28;20465;-78
2024/04/02 17:40:28;;;;;;;1.70;1.37;;;;;;;;;;6222652;28;20037;-78
2024/04/02 17:43:28;;;;;;;2.23;1.80;;;;;;;;;;6231284;28;20042;-78
2024/04/02 17:46:28;;;;;;;1.33;1.23;;;;;;;;;;6235084;28;20032;-79
2024/04/02 17:49:32;;;;;;;0.80;0.70;;;;;;;;;;6231014;28;20470;-77
2024/04/02 17:52:32;;;;;;;0.70;0.50;;;;;;;;;;6226091;28;20038;-78
2024/04/02 17:55:32;;;;;;;0.53;0.30;;;;;;;;;;6228542;28;20383;-78
2024/04/02 17:58:33;;;;;;;0.47;0.30;;;;;;;;;;6238479;28;20017;-78
2024/04/02 18:01:33;;;;;;;0.30;0.20;;;;;;;;;;6231453;28;20418;-78
2024/04/02 18:04:34;;;;;;;1.10;0.30;;;;;;;;;;6250764;28;20021;-77
2024/04/02 18:07:34;;;;;;;0.33;0.30;;;;;;;;;;6236364;28;20104;-77
2024/04/02 18:10:34;;;;;;;0.30;0.30;;;;;;;;;;6233301;28;20033;-78
2024/04/02 18:13:35;;;;;;;0.30;0.30;;;;;;;;;;6231169;28;20374;-77